sensor_id;sensor_type;location;lat;lon;timestamp;P1;durP1;ratioP1;P2;durP2;ratioP2
50128;SDS011;36026;45.478;9.224;2022-07-29T00:01:09;2.17;;;1.60;;
50128;SDS011;36026;45.478;9.224;2022-07-29T00:04:15;2.63;;;1.65;;
50128;SDS011;36026;45.478;9.224;2022-07-29T00:07:17;2.63;;;1.83;;
50128;SDS011;36026;45.478;9.224;2022-07-29T00:10:20;4.05;;;1.60;;
50128;SDS011;36026;45.478;9.224;2022-07-29T00:16:23;3.00;;;1.60;;
50128;SDS011;36026;45.478;9.224;2022-07-29T00:19:25;2.30;;;1.48;;
50128;SDS011;36026;45.478;9.224;2022-07-29T00:22:27;1.40;;;1.25;;
50128;SDS011;36026;45.478;9.224;2022-07-29T00:25:30;3.15;;;1.85;;
50128;SDS011;36026;45.478;9.224;2022-07-29T00:28:31;2.92;;;1.88;;
50128;SDS011;36026;45.478;9.224;2022-07-29T00:31:33;2.33;;;1.50;;
50128;SDS011;36026;45.478;9.224;2022-07-29T00:34:35;2.22;;;1.70;;
50128;SDS011;36026;45.478;9.224;2022-07-29T00:37:54;4.00;;;1.70;;
50128;SDS011;36026;45.478;9.224;2022-07-29T00:40:57;3.33;;;1.60;;
50128;SDS011;36026;45.478;9.224;2022-07-29T00:43:58;2.08;;;1.60;;
50128;SDS011;36026;45.478;9.224;2022-07-29T00:47:00;1.92;;;1.73;;
50128;SDS011;36026;45.478;9.224;2022-07-29T00:50:03;2.58;;;1.63;;
50128;SDS011;36026;45.478;9.224;2022-07-29T00:53:05;1.80;;;1.60;;
50128;SDS011;36026;45.478;9.224;2022-07-29T00:56:09;2.38;;;1.73;;
50128;SDS011;36026;45.478;9.224;2022-07-29T00:59:11;4.07;;;1.50;;
50128;SDS011;36026;45.478;9.224;2022-07-29T01:02:12;2.03;;;1.50;;
50128;SDS011;36026;45.478;9.224;2022-07-29T01:05:15;2.75;;;1.85;;
50128;SDS011;36026;45.478;9.224;2022-07-29T01:08:18;3.42;;;1.83;;
50128;SDS011;36026;45.478;9.224;2022-07-29T01:11:21;2.17;;;1.67;;
50128;SDS011;36026;45.478;9.224;2022-07-29T01:14:23;3.17;;;1.90;;
50128;SDS011;36026;45.478;9.224;2022-07-29T01:17:26;5.57;;;1.70;;
50128;SDS011;36026;45.478;9.224;2022-07-29T01:20:31;4.03;;;1.80;;
50128;SDS011;36026;45.478;9.224;2022-07-29T01:23:48;1.80;;;1.65;;
50128;SDS011;36026;45.478;9.224;2022-07-29T01:26:59;4.72;;;1.77;;
50128;SDS011;36026;45.478;9.224;2022-07-29T01:30:07;3.78;;;1.60;;
50128;SDS011;36026;45.478;9.224;2022-07-29T01:33:10;2.75;;;1.63;;
50128;SDS011;36026;45.478;9.224;2022-07-29T01:36:33;2.40;;;1.80;;
50128;SDS011;36026;45.478;9.224;2022-07-29T01:39:37;3.50;;;1.95;;
50128;SDS011;36026;45.478;9.224;2022-07-29T01:42:42;3.42;;;1.90;;
50128;SDS011;36026;45.478;9.224;2022-07-29T01:45:48;3.45;;;2.00;;
50128;SDS011;36026;45.478;9.224;2022-07-29T01:48:53;4.10;;;1.67;;
50128;SDS011;36026;45.478;9.224;2022-07-29T01:51:59;2.72;;;2.35;;
50128;SDS011;36026;45.478;9.224;2022-07-29T01:55:06;2.35;;;1.75;;
50128;SDS011;36026;45.478;9.224;2022-07-29T01:58:11;4.65;;;2.30;;
50128;SDS011;36026;45.478;9.224;2022-07-29T02:01:15;5.20;;;2.00;;
50128;SDS011;36026;45.478;9.224;2022-07-29T02:04:17;3.97;;;2.20;;
50128;SDS011;36026;45.478;9.224;2022-07-29T02:07:21;4.22;;;2.15;;
50128;SDS011;36026;45.478;9.224;2022-07-29T02:10:24;3.80;;;2.22;;
50128;SDS011;36026;45.478;9.224;2022-07-29T02:13:29;3.38;;;2.30;;
50128;SDS011;36026;45.478;9.224;2022-07-29T02:16:32;5.10;;;2.28;;
50128;SDS011;36026;45.478;9.224;2022-07-29T02:19:34;5.00;;;1.98;;
50128;SDS011;36026;45.478;9.224;2022-07-29T02:22:39;3.20;;;2.10;;
50128;SDS011;36026;45.478;9.224;2022-07-29T02:25:41;5.40;;;2.17;;
50128;SDS011;36026;45.478;9.224;2022-07-29T02:28:43;4.43;;;2.20;;
50128;SDS011;36026;45.478;9.224;2022-07-29T02:31:47;3.17;;;2.20;;
50128;SDS011;36026;45.478;9.224;2022-07-29T02:34:50;4.35;;;2.20;;
50128;SDS011;36026;45.478;9.224;2022-07-29T02:37:52;5.32;;;2.58;;
50128;SDS011;36026;45.478;9.224;2022-07-29T02:41:08;2.60;;;1.95;;
50128;SDS011;36026;45.478;9.224;2022-07-29T02:44:13;2.65;;;1.77;;
50128;SDS011;36026;45.478;9.224;2022-07-29T02:47:18;2.20;;;1.50;;
50128;SDS011;36026;45.478;9.224;2022-07-29T02:50:23;2.38;;;1.38;;
50128;SDS011;36026;45.478;9.224;2022-07-29T02:53:27;2.80;;;1.40;;
50128;SDS011;36026;45.478;9.224;2022-07-29T02:56:31;2.05;;;1.35;;
50128;SDS011;36026;45.478;9.224;2022-07-29T02:59:37;2.33;;;1.33;;
50128;SDS011;36026;45.478;9.224;2022-07-29T03:02:45;2.33;;;1.30;;
50128;SDS011;36026;45.478;9.224;2022-07-29T03:05:52;1.67;;;1.20;;
50128;SDS011;36026;45.478;9.224;2022-07-29T03:08:55;1.70;;;1.38;;
50128;SDS011;36026;45.478;9.224;2022-07-29T03:11:58;1.85;;;1.35;;
50128;SDS011;36026;45.478;9.224;2022-07-29T03:15:00;1.25;;;1.15;;
50128;SDS011;36026;45.478;9.224;2022-07-29T03:18:04;2.30;;;1.60;;
50128;SDS011;36026;45.478;9.224;2022-07-29T03:21:07;1.80;;;1.15;;
50128;SDS011;36026;45.478;9.224;2022-07-29T03:24:09;1.50;;;1.30;;
50128;SDS011;36026;45.478;9.224;2022-07-29T03:27:11;2.22;;;1.48;;
50128;SDS011;36026;45.478;9.224;2022-07-29T03:30:13;2.33;;;1.20;;
50128;SDS011;36026;45.478;9.224;2022-07-29T03:33:17;1.35;;;1.15;;
50128;SDS011;36026;45.478;9.224;2022-07-29T03:36:18;1.88;;;1.10;;
50128;SDS011;36026;45.478;9.224;2022-07-29T03:39:21;3.53;;;1.40;;
50128;SDS011;36026;45.478;9.224;2022-07-29T03:42:26;2.28;;;1.23;;
50128;SDS011;36026;45.478;9.224;2022-07-29T03:45:29;1.85;;;1.50;;
50128;SDS011;36026;45.478;9.224;2022-07-29T03:48:33;2.83;;;1.40;;
50128;SDS011;36026;45.478;9.224;2022-07-29T03:51:36;1.90;;;1.38;;
50128;SDS011;36026;45.478;9.224;2022-07-29T03:54:38;1.95;;;1.30;;
50128;SDS011;36026;45.478;9.224;2022-07-29T03:57:40;5.38;;;1.35;;
50128;SDS011;36026;45.478;9.224;2022-07-29T04:00:43;2.58;;;1.27;;
50128;SDS011;36026;45.478;9.224;2022-07-29T04:03:46;1.73;;;1.20;;
50128;SDS011;36026;45.478;9.224;2022-07-29T04:06:48;1.80;;;1.00;;
50128;SDS011;36026;45.478;9.224;2022-07-29T04:09:49;1.65;;;1.20;;
50128;SDS011;36026;45.478;9.224;2022-07-29T04:12:51;3.17;;;1.13;;
50128;SDS011;36026;45.478;9.224;2022-07-29T04:15:53;1.30;;;1.02;;
50128;SDS011;36026;45.478;9.224;2022-07-29T04:18:57;1.42;;;1.00;;
50128;SDS011;36026;45.478;9.224;2022-07-29T04:21:59;2.38;;;1.20;;
50128;SDS011;36026;45.478;9.224;2022-07-29T04:25:01;2.53;;;1.20;;
50128;SDS011;36026;45.478;9.224;2022-07-29T04:28:02;2.38;;;1.30;;
50128;SDS011;36026;45.478;9.224;2022-07-29T04:31:04;1.73;;;0.98;;
50128;SDS011;36026;45.478;9.224;2022-07-29T04:34:08;1.50;;;1.20;;
50128;SDS011;36026;45.478;9.224;2022-07-29T04:37:10;2.10;;;1.25;;
50128;SDS011;36026;45.478;9.224;2022-07-29T04:40:11;1.85;;;1.00;;
50128;SDS011;36026;45.478;9.224;2022-07-29T04:43:14;4.05;;;1.10;;
50128;SDS011;36026;45.478;9.224;2022-07-29T04:46:16;3.78;;;1.30;;
50128;SDS011;36026;45.478;9.224;2022-07-29T04:49:19;2.20;;;1.20;;
50128;SDS011;36026;45.478;9.224;2022-07-29T04:52:21;2.45;;;1.33;;
50128;SDS011;36026;45.478;9.224;2022-07-29T04:55:22;2.58;;;1.50;;
50128;SDS011;36026;45.478;9.224;2022-07-29T04:58:24;2.85;;;1.27;;
50128;SDS011;36026;45.478;9.224;2022-07-29T05:01:26;2.08;;;1.20;;
50128;SDS011;36026;45.478;9.224;2022-07-29T05:04:29;3.03;;;1.20;;
50128;SDS011;36026;45.478;9.224;2022-07-29T05:07:31;4.65;;;1.15;;
50128;SDS011;36026;45.478;9.224;2022-07-29T05:10:33;3.17;;;1.38;;
50128;SDS011;36026;45.478;9.224;2022-07-29T05:13:38;3.15;;;1.30;;
50128;SDS011;36026;45.478;9.224;2022-07-29T05:16:39;2.28;;;1.40;;
50128;SDS011;36026;45.478;9.224;2022-07-29T05:19:43;2.88;;;1.52;;
50128;SDS011;36026;45.478;9.224;2022-07-29T05:25:46;1.48;;;1.10;;
50128;SDS011;36026;45.478;9.224;2022-07-29T05:28:48;2.55;;;1.50;;
50128;SDS011;36026;45.478;9.224;2022-07-29T05:31:50;3.17;;;1.60;;
50128;SDS011;36026;45.478;9.224;2022-07-29T05:34:54;2.85;;;1.20;;
50128;SDS011;36026;45.478;9.224;2022-07-29T05:37:56;2.63;;;1.40;;
50128;SDS011;36026;45.478;9.224;2022-07-29T05:40:57;2.25;;;1.65;;
50128;SDS011;36026;45.478;9.224;2022-07-29T05:43:59;4.10;;;1.60;;
50128;SDS011;36026;45.478;9.224;2022-07-29T05:47:02;3.10;;;1.50;;
50128;SDS011;36026;45.478;9.224;2022-07-29T05:50:05;3.70;;;1.77;;
50128;SDS011;36026;45.478;9.224;2022-07-29T05:53:08;3.53;;;1.70;;
50128;SDS011;36026;45.478;9.224;2022-07-29T05:56:10;3.70;;;1.95;;
50128;SDS011;36026;45.478;9.224;2022-07-29T05:59:12;5.20;;;2.00;;
50128;SDS011;36026;45.478;9.224;2022-07-29T06:02:13;9.02;;;2.05;;
50128;SDS011;36026;45.478;9.224;2022-07-29T06:05:17;2.63;;;1.83;;
50128;SDS011;36026;45.478;9.224;2022-07-29T06:08:19;4.88;;;2.05;;
50128;SDS011;36026;45.478;9.224;2022-07-29T06:11:21;5.30;;;1.80;;
50128;SDS011;36026;45.478;9.224;2022-07-29T06:14:23;6.90;;;2.00;;
50128;SDS011;36026;45.478;9.224;2022-07-29T06:17:24;3.55;;;1.83;;
50128;SDS011;36026;45.478;9.224;2022-07-29T06:20:27;4.57;;;2.33;;
50128;SDS011;36026;45.478;9.224;2022-07-29T06:23:30;9.82;;;2.38;;
50128;SDS011;36026;45.478;9.224;2022-07-29T06:26:32;5.30;;;2.10;;
50128;SDS011;36026;45.478;9.224;2022-07-29T06:29:34;4.97;;;2.20;;
50128;SDS011;36026;45.478;9.224;2022-07-29T06:32:35;7.22;;;2.28;;
50128;SDS011;36026;45.478;9.224;2022-07-29T06:35:39;2.92;;;2.20;;
50128;SDS011;36026;45.478;9.224;2022-07-29T06:38:42;2.28;;;1.85;;
50128;SDS011;36026;45.478;9.224;2022-07-29T06:41:45;5.03;;;2.05;;
50128;SDS011;36026;45.478;9.224;2022-07-29T06:44:48;4.13;;;2.03;;
50128;SDS011;36026;45.478;9.224;2022-07-29T06:47:49;4.55;;;2.10;;
50128;SDS011;36026;45.478;9.224;2022-07-29T06:50:52;3.00;;;1.58;;
50128;SDS011;36026;45.478;9.224;2022-07-29T06:53:54;5.15;;;2.38;;
50128;SDS011;36026;45.478;9.224;2022-07-29T06:56:57;4.82;;;2.20;;
50128;SDS011;36026;45.478;9.224;2022-07-29T06:59:59;3.83;;;2.15;;
50128;SDS011;36026;45.478;9.224;2022-07-29T07:03:00;3.22;;;2.30;;
50128;SDS011;36026;45.478;9.224;2022-07-29T07:06:04;3.13;;;2.20;;
50128;SDS011;36026;45.478;9.224;2022-07-29T07:09:05;6.40;;;2.17;;
50128;SDS011;36026;45.478;9.224;2022-07-29T07:12:08;5.15;;;2.10;;
50128;SDS011;36026;45.478;9.224;2022-07-29T07:15:10;3.90;;;2.50;;
50128;SDS011;36026;45.478;9.224;2022-07-29T07:18:11;5.20;;;2.70;;
50128;SDS011;36026;45.478;9.224;2022-07-29T07:21:14;4.80;;;2.90;;
50128;SDS011;36026;45.478;9.224;2022-07-29T07:27:17;5.40;;;2.20;;
50128;SDS011;36026;45.478;9.224;2022-07-29T07:30:19;5.82;;;2.33;;
50128;SDS011;36026;45.478;9.224;2022-07-29T07:33:21;3.95;;;2.20;;
50128;SDS011;36026;45.478;9.224;2022-07-29T07:36:24;4.63;;;2.20;;
50128;SDS011;36026;45.478;9.224;2022-07-29T07:42:27;6.50;;;1.92;;
50128;SDS011;36026;45.478;9.224;2022-07-29T07:45:29;5.80;;;2.30;;
50128;SDS011;36026;45.478;9.224;2022-07-29T07:48:32;3.78;;;2.13;;
50128;SDS011;36026;45.478;9.224;2022-07-29T07:51:36;3.65;;;2.00;;
50128;SDS011;36026;45.478;9.224;2022-07-29T07:54:38;3.80;;;2.13;;
50128;SDS011;36026;45.478;9.224;2022-07-29T07:57:40;7.20;;;2.20;;
50128;SDS011;36026;45.478;9.224;2022-07-29T08:00:41;5.32;;;1.80;;
50128;SDS011;36026;45.478;9.224;2022-07-29T08:03:43;3.90;;;2.15;;
50128;SDS011;36026;45.478;9.224;2022-07-29T08:06:47;59.95;;;6.70;;
50128;SDS011;36026;45.478;9.224;2022-07-29T08:09:49;31.33;;;3.92;;
50128;SDS011;36026;45.478;9.224;2022-07-29T08:12:51;5.38;;;2.45;;
50128;SDS011;36026;45.478;9.224;2022-07-29T08:15:53;3.65;;;2.10;;
50128;SDS011;36026;45.478;9.224;2022-07-29T08:18:59;3.15;;;1.85;;
50128;SDS011;36026;45.478;9.224;2022-07-29T08:22:02;5.97;;;1.90;;
50128;SDS011;36026;45.478;9.224;2022-07-29T08:25:04;4.28;;;2.20;;
50128;SDS011;36026;45.478;9.224;2022-07-29T08:28:06;4.10;;;1.95;;
50128;SDS011;36026;45.478;9.224;2022-07-29T08:31:08;4.70;;;1.98;;
50128;SDS011;36026;45.478;9.224;2022-07-29T08:34:10;5.50;;;2.22;;
50128;SDS011;36026;45.478;9.224;2022-07-29T08:37:13;2.80;;;2.13;;
50128;SDS011;36026;45.478;9.224;2022-07-29T08:40:15;4.72;;;2.00;;
50128;SDS011;36026;45.478;9.224;2022-07-29T08:43:17;3.90;;;2.17;;
50128;SDS011;36026;45.478;9.224;2022-07-29T08:46:19;3.45;;;1.90;;
50128;SDS011;36026;45.478;9.224;2022-07-29T08:49:21;4.30;;;2.10;;
50128;SDS011;36026;45.478;9.224;2022-07-29T08:52:25;7.88;;;3.00;;
50128;SDS011;36026;45.478;9.224;2022-07-29T08:55:27;5.38;;;2.28;;
50128;SDS011;36026;45.478;9.224;2022-07-29T08:58:31;4.93;;;2.50;;
50128;SDS011;36026;45.478;9.224;2022-07-29T09:01:33;5.20;;;3.00;;
50128;SDS011;36026;45.478;9.224;2022-07-29T09:04:38;6.82;;;2.30;;
50128;SDS011;36026;45.478;9.224;2022-07-29T09:07:41;5.40;;;2.88;;
50128;SDS011;36026;45.478;9.224;2022-07-29T09:10:44;5.90;;;2.63;;
50128;SDS011;36026;45.478;9.224;2022-07-29T09:13:46;5.97;;;3.10;;
50128;SDS011;36026;45.478;9.224;2022-07-29T09:16:51;3.00;;;2.38;;
50128;SDS011;36026;45.478;9.224;2022-07-29T09:19:54;4.82;;;2.90;;
50128;SDS011;36026;45.478;9.224;2022-07-29T09:23:11;3.03;;;2.33;;
50128;SDS011;36026;45.478;9.224;2022-07-29T09:26:14;5.65;;;2.70;;
50128;SDS011;36026;45.478;9.224;2022-07-29T09:29:17;4.63;;;2.90;;
50128;SDS011;36026;45.478;9.224;2022-07-29T09:32:20;7.22;;;3.53;;
50128;SDS011;36026;45.478;9.224;2022-07-29T09:35:22;4.85;;;2.60;;
50128;SDS011;36026;45.478;9.224;2022-07-29T09:38:26;3.67;;;2.40;;
50128;SDS011;36026;45.478;9.224;2022-07-29T09:41:28;5.05;;;2.45;;
50128;SDS011;36026;45.478;9.224;2022-07-29T09:44:43;4.28;;;3.03;;
50128;SDS011;36026;45.478;9.224;2022-07-29T09:47:48;3.50;;;3.20;;
50128;SDS011;36026;45.478;9.224;2022-07-29T09:50:51;5.47;;;3.30;;
50128;SDS011;36026;45.478;9.224;2022-07-29T09:53:55;4.90;;;3.00;;
50128;SDS011;36026;45.478;9.224;2022-07-29T09:56:56;2.85;;;2.53;;
50128;SDS011;36026;45.478;9.224;2022-07-29T09:59:59;2.92;;;2.63;;
50128;SDS011;36026;45.478;9.224;2022-07-29T10:03:01;4.07;;;2.65;;
50128;SDS011;36026;45.478;9.224;2022-07-29T10:06:06;5.00;;;2.50;;
50128;SDS011;36026;45.478;9.224;2022-07-29T10:09:10;5.95;;;3.10;;
50128;SDS011;36026;45.478;9.224;2022-07-29T10:12:12;3.63;;;2.47;;
50128;SDS011;36026;45.478;9.224;2022-07-29T10:18:16;4.97;;;2.95;;
50128;SDS011;36026;45.478;9.224;2022-07-29T10:21:19;6.35;;;3.50;;
50128;SDS011;36026;45.478;9.224;2022-07-29T10:24:23;4.15;;;2.55;;
50128;SDS011;36026;45.478;9.224;2022-07-29T10:27:26;5.50;;;3.22;;
50128;SDS011;36026;45.478;9.224;2022-07-29T10:30:28;3.53;;;2.55;;
50128;SDS011;36026;45.478;9.224;2022-07-29T10:33:37;3.13;;;2.60;;
50128;SDS011;36026;45.478;9.224;2022-07-29T10:36:47;4.55;;;2.70;;
50128;SDS011;36026;45.478;9.224;2022-07-29T10:39:57;5.22;;;3.40;;
50128;SDS011;36026;45.478;9.224;2022-07-29T10:43:24;3.85;;;2.65;;
50128;SDS011;36026;45.478;9.224;2022-07-29T10:46:27;3.60;;;3.10;;
50128;SDS011;36026;45.478;9.224;2022-07-29T10:49:30;4.60;;;3.30;;
50128;SDS011;36026;45.478;9.224;2022-07-29T10:55:57;4.53;;;2.92;;
50128;SDS011;36026;45.478;9.224;2022-07-29T11:02:42;5.40;;;3.55;;
50128;SDS011;36026;45.478;9.224;2022-07-29T11:05:54;6.60;;;2.83;;
50128;SDS011;36026;45.478;9.224;2022-07-29T11:09:15;3.72;;;3.30;;
50128;SDS011;36026;45.478;9.224;2022-07-29T11:15:54;4.22;;;3.00;;
50128;SDS011;36026;45.478;9.224;2022-07-29T11:22:33;4.68;;;3.25;;
50128;SDS011;36026;45.478;9.224;2022-07-29T11:25:36;6.68;;;3.40;;
50128;SDS011;36026;45.478;9.224;2022-07-29T11:28:39;9.95;;;3.40;;
50128;SDS011;36026;45.478;9.224;2022-07-29T11:31:51;6.97;;;3.10;;
50128;SDS011;36026;45.478;9.224;2022-07-29T11:38:25;6.70;;;4.03;;
50128;SDS011;36026;45.478;9.224;2022-07-29T11:41:27;3.75;;;3.00;;
50128;SDS011;36026;45.478;9.224;2022-07-29T11:48:06;4.15;;;3.67;;
50128;SDS011;36026;45.478;9.224;2022-07-29T11:51:09;4.60;;;3.42;;
50128;SDS011;36026;45.478;9.224;2022-07-29T11:54:11;5.95;;;3.50;;
50128;SDS011;36026;45.478;9.224;2022-07-29T11:57:15;4.65;;;3.78;;
50128;SDS011;36026;45.478;9.224;2022-07-29T12:00:21;7.25;;;3.97;;
50128;SDS011;36026;45.478;9.224;2022-07-29T12:03:28;5.57;;;3.95;;
50128;SDS011;36026;45.478;9.224;2022-07-29T12:06:30;6.53;;;4.25;;
50128;SDS011;36026;45.478;9.224;2022-07-29T12:09:32;4.28;;;3.40;;
50128;SDS011;36026;45.478;9.224;2022-07-29T12:12:34;4.18;;;3.47;;
50128;SDS011;36026;45.478;9.224;2022-07-29T12:15:36;6.13;;;3.95;;
50128;SDS011;36026;45.478;9.224;2022-07-29T12:18:39;6.55;;;3.75;;
50128;SDS011;36026;45.478;9.224;2022-07-29T12:21:43;4.93;;;3.80;;
50128;SDS011;36026;45.478;9.224;2022-07-29T12:24:45;6.38;;;3.90;;
50128;SDS011;36026;45.478;9.224;2022-07-29T12:27:47;4.80;;;4.35;;
50128;SDS011;36026;45.478;9.224;2022-07-29T12:30:51;5.45;;;3.60;;
50128;SDS011;36026;45.478;9.224;2022-07-29T12:33:54;4.00;;;3.45;;
50128;SDS011;36026;45.478;9.224;2022-07-29T12:36:56;5.70;;;3.70;;
50128;SDS011;36026;45.478;9.224;2022-07-29T12:39:58;4.63;;;3.60;;
50128;SDS011;36026;45.478;9.224;2022-07-29T12:43:10;6.88;;;3.75;;
50128;SDS011;36026;45.478;9.224;2022-07-29T12:46:13;4.63;;;3.42;;
50128;SDS011;36026;45.478;9.224;2022-07-29T12:49:22;5.40;;;3.90;;
50128;SDS011;36026;45.478;9.224;2022-07-29T12:52:27;4.65;;;4.03;;
50128;SDS011;36026;45.478;9.224;2022-07-29T12:55:40;5.97;;;3.80;;
50128;SDS011;36026;45.478;9.224;2022-07-29T12:58:42;6.88;;;3.70;;
50128;SDS011;36026;45.478;9.224;2022-07-29T13:01:44;4.50;;;4.10;;
50128;SDS011;36026;45.478;9.224;2022-07-29T13:04:55;4.57;;;3.40;;
50128;SDS011;36026;45.478;9.224;2022-07-29T13:08:09;5.95;;;3.72;;
50128;SDS011;36026;45.478;9.224;2022-07-29T13:14:30;5.15;;;3.75;;
50128;SDS011;36026;45.478;9.224;2022-07-29T13:17:32;4.55;;;3.35;;
50128;SDS011;36026;45.478;9.224;2022-07-29T13:20:42;6.20;;;3.53;;
50128;SDS011;36026;45.478;9.224;2022-07-29T13:23:44;7.28;;;3.60;;
50128;SDS011;36026;45.478;9.224;2022-07-29T13:26:45;5.18;;;3.55;;
50128;SDS011;36026;45.478;9.224;2022-07-29T13:29:47;4.03;;;3.58;;
50128;SDS011;36026;45.478;9.224;2022-07-29T13:32:51;3.78;;;3.25;;
50128;SDS011;36026;45.478;9.224;2022-07-29T13:35:54;4.78;;;4.07;;
50128;SDS011;36026;45.478;9.224;2022-07-29T13:38:56;5.20;;;3.42;;
50128;SDS011;36026;45.478;9.224;2022-07-29T13:41:58;4.35;;;3.60;;
50128;SDS011;36026;45.478;9.224;2022-07-29T13:44:59;7.13;;;3.85;;
50128;SDS011;36026;45.478;9.224;2022-07-29T13:48:01;5.22;;;3.60;;
50128;SDS011;36026;45.478;9.224;2022-07-29T13:51:05;5.75;;;3.70;;
50128;SDS011;36026;45.478;9.224;2022-07-29T13:54:06;4.93;;;3.78;;
50128;SDS011;36026;45.478;9.224;2022-07-29T14:00:10;5.07;;;3.47;;
50128;SDS011;36026;45.478;9.224;2022-07-29T14:03:13;7.85;;;3.75;;
50128;SDS011;36026;45.478;9.224;2022-07-29T14:06:16;5.45;;;3.92;;
50128;SDS011;36026;45.478;9.224;2022-07-29T14:09:18;4.13;;;3.70;;
50128;SDS011;36026;45.478;9.224;2022-07-29T14:12:20;5.68;;;3.60;;
50128;SDS011;36026;45.478;9.224;2022-07-29T14:15:22;5.47;;;3.85;;
50128;SDS011;36026;45.478;9.224;2022-07-29T14:18:24;4.28;;;3.88;;
50128;SDS011;36026;45.478;9.224;2022-07-29T14:21:28;4.35;;;3.65;;
50128;SDS011;36026;45.478;9.224;2022-07-29T14:24:30;17.33;;;3.95;;
50128;SDS011;36026;45.478;9.224;2022-07-29T14:27:32;4.30;;;3.80;;
50128;SDS011;36026;45.478;9.224;2022-07-29T14:30:34;5.47;;;4.00;;
50128;SDS011;36026;45.478;9.224;2022-07-29T14:33:35;5.93;;;4.15;;
50128;SDS011;36026;45.478;9.224;2022-07-29T14:36:38;5.40;;;4.68;;
50128;SDS011;36026;45.478;9.224;2022-07-29T14:39:40;5.07;;;4.40;;
50128;SDS011;36026;45.478;9.224;2022-07-29T14:42:42;5.60;;;4.47;;
50128;SDS011;36026;45.478;9.224;2022-07-29T14:45:43;3.80;;;3.42;;
50128;SDS011;36026;45.478;9.224;2022-07-29T14:48:45;8.43;;;4.10;;
50128;SDS011;36026;45.478;9.224;2022-07-29T14:51:48;5.50;;;4.47;;
50128;SDS011;36026;45.478;9.224;2022-07-29T14:54:50;4.80;;;4.30;;
50128;SDS011;36026;45.478;9.224;2022-07-29T14:57:52;5.80;;;4.20;;
50128;SDS011;36026;45.478;9.224;2022-07-29T15:00:53;5.30;;;4.07;;
50128;SDS011;36026;45.478;9.224;2022-07-29T15:06:59;6.40;;;4.00;;
50128;SDS011;36026;45.478;9.224;2022-07-29T15:10:00;7.50;;;4.00;;
50128;SDS011;36026;45.478;9.224;2022-07-29T15:13:02;6.07;;;4.03;;
50128;SDS011;36026;45.478;9.224;2022-07-29T15:16:04;5.37;;;3.70;;
50128;SDS011;36026;45.478;9.224;2022-07-29T15:19:06;4.47;;;3.70;;
50128;SDS011;36026;45.478;9.224;2022-07-29T15:22:09;7.17;;;3.83;;
50128;SDS011;36026;45.478;9.224;2022-07-29T15:25:11;9.73;;;4.85;;
50128;SDS011;36026;45.478;9.224;2022-07-29T15:30:43;8.18;;;5.75;;
50128;SDS011;36026;45.478;9.224;2022-07-29T15:33:45;13.63;;;8.93;;
50128;SDS011;36026;45.478;9.224;2022-07-29T15:36:47;19.90;;;12.48;;
50128;SDS011;36026;45.478;9.224;2022-07-29T15:39:48;28.73;;;11.90;;
50128;SDS011;36026;45.478;9.224;2022-07-29T15:42:50;23.92;;;12.52;;
50128;SDS011;36026;45.478;9.224;2022-07-29T15:45:53;24.25;;;14.73;;
50128;SDS011;36026;45.478;9.224;2022-07-29T15:49:12;16.55;;;14.27;;
50128;SDS011;36026;45.478;9.224;2022-07-29T15:52:14;68.83;;;15.63;;
50128;SDS011;36026;45.478;9.224;2022-07-29T15:55:36;61.17;;;17.40;;
50128;SDS011;36026;45.478;9.224;2022-07-29T15:58:38;32.50;;;17.08;;
50128;SDS011;36026;45.478;9.224;2022-07-29T16:01:40;24.95;;;16.60;;
50128;SDS011;36026;45.478;9.224;2022-07-29T16:04:41;30.67;;;17.33;;
50128;SDS011;36026;45.478;9.224;2022-07-29T16:07:43;31.13;;;18.02;;
50128;SDS011;36026;45.478;9.224;2022-07-29T16:10:46;30.58;;;18.17;;
50128;SDS011;36026;45.478;9.224;2022-07-29T16:13:48;32.13;;;20.08;;
50128;SDS011;36026;45.478;9.224;2022-07-29T16:16:49;30.88;;;19.50;;
50128;SDS011;36026;45.478;9.224;2022-07-29T16:19:51;21.38;;;16.00;;
50128;SDS011;36026;45.478;9.224;2022-07-29T16:22:53;20.02;;;15.27;;
50128;SDS011;36026;45.478;9.224;2022-07-29T16:25:56;14.65;;;8.25;;
50128;SDS011;36026;45.478;9.224;2022-07-29T16:28:57;10.15;;;6.28;;
50128;SDS011;36026;45.478;9.224;2022-07-29T16:31:59;4.70;;;3.40;;
50128;SDS011;36026;45.478;9.224;2022-07-29T16:35:01;9.27;;;4.13;;
50128;SDS011;36026;45.478;9.224;2022-07-29T16:38:04;21.17;;;5.43;;
50128;SDS011;36026;45.478;9.224;2022-07-29T16:41:07;7.50;;;4.85;;
50128;SDS011;36026;45.478;9.224;2022-07-29T16:44:09;12.35;;;5.90;;
50128;SDS011;36026;45.478;9.224;2022-07-29T16:47:10;11.23;;;6.47;;
50128;SDS011;36026;45.478;9.224;2022-07-29T16:50:12;13.55;;;8.55;;
50128;SDS011;36026;45.478;9.224;2022-07-29T16:53:14;20.05;;;10.38;;
50128;SDS011;36026;45.478;9.224;2022-07-29T16:56:17;23.63;;;14.10;;
50128;SDS011;36026;45.478;9.224;2022-07-29T16:59:18;23.85;;;15.43;;
50128;SDS011;36026;45.478;9.224;2022-07-29T17:02:20;24.58;;;15.88;;
50128;SDS011;36026;45.478;9.224;2022-07-29T17:05:22;26.75;;;17.25;;
50128;SDS011;36026;45.478;9.224;2022-07-29T17:08:23;22.80;;;14.48;;
50128;SDS011;36026;45.478;9.224;2022-07-29T17:11:26;15.18;;;10.73;;
50128;SDS011;36026;45.478;9.224;2022-07-29T17:14:28;21.15;;;12.00;;
50128;SDS011;36026;45.478;9.224;2022-07-29T17:17:31;17.48;;;12.02;;
50128;SDS011;36026;45.478;9.224;2022-07-29T17:20:32;17.80;;;12.10;;
50128;SDS011;36026;45.478;9.224;2022-07-29T17:23:35;19.67;;;13.05;;
50128;SDS011;36026;45.478;9.224;2022-07-29T17:26:38;23.15;;;14.40;;
50128;SDS011;36026;45.478;9.224;2022-07-29T17:29:42;23.70;;;15.23;;
50128;SDS011;36026;45.478;9.224;2022-07-29T17:32:44;20.73;;;14.45;;
50128;SDS011;36026;45.478;9.224;2022-07-29T17:35:45;22.25;;;14.60;;
50128;SDS011;36026;45.478;9.224;2022-07-29T17:39:05;23.75;;;13.25;;
50128;SDS011;36026;45.478;9.224;2022-07-29T17:42:12;20.75;;;13.02;;
50128;SDS011;36026;45.478;9.224;2022-07-29T17:45:14;15.00;;;12.02;;
50128;SDS011;36026;45.478;9.224;2022-07-29T17:48:15;15.77;;;12.05;;
50128;SDS011;36026;45.478;9.224;2022-07-29T17:51:17;18.40;;;12.43;;
50128;SDS011;36026;45.478;9.224;2022-07-29T17:54:19;18.95;;;13.02;;
50128;SDS011;36026;45.478;9.224;2022-07-29T17:57:22;18.35;;;12.80;;
50128;SDS011;36026;45.478;9.224;2022-07-29T18:00:24;19.02;;;13.90;;
50128;SDS011;36026;45.478;9.224;2022-07-29T18:03:25;21.95;;;13.70;;
50128;SDS011;36026;45.478;9.224;2022-07-29T18:06:27;15.38;;;12.60;;
50128;SDS011;36026;45.478;9.224;2022-07-29T18:09:29;16.88;;;11.88;;
50128;SDS011;36026;45.478;9.224;2022-07-29T18:12:32;19.08;;;13.38;;
50128;SDS011;36026;45.478;9.224;2022-07-29T18:15:34;16.08;;;11.98;;
50128;SDS011;36026;45.478;9.224;2022-07-29T18:18:35;15.57;;;12.20;;
50128;SDS011;36026;45.478;9.224;2022-07-29T18:21:37;17.65;;;11.38;;
50128;SDS011;36026;45.478;9.224;2022-07-29T18:24:39;11.90;;;9.48;;
50128;SDS011;36026;45.478;9.224;2022-07-29T18:27:42;12.68;;;9.70;;
50128;SDS011;36026;45.478;9.224;2022-07-29T18:33:46;11.60;;;8.73;;
50128;SDS011;36026;45.478;9.224;2022-07-29T18:36:48;10.48;;;8.07;;
50128;SDS011;36026;45.478;9.224;2022-07-29T18:39:49;11.70;;;8.98;;
50128;SDS011;36026;45.478;9.224;2022-07-29T18:42:52;12.32;;;9.80;;
50128;SDS011;36026;45.478;9.224;2022-07-29T18:45:54;11.40;;;8.82;;
50128;SDS011;36026;45.478;9.224;2022-07-29T18:48:55;12.48;;;9.30;;
50128;SDS011;36026;45.478;9.224;2022-07-29T18:51:58;13.02;;;9.23;;
50128;SDS011;36026;45.478;9.224;2022-07-29T18:55:00;13.48;;;9.38;;
50128;SDS011;36026;45.478;9.224;2022-07-29T18:58:04;9.40;;;8.00;;
50128;SDS011;36026;45.478;9.224;2022-07-29T19:01:05;9.93;;;7.90;;
50128;SDS011;36026;45.478;9.224;2022-07-29T19:04:07;8.95;;;7.60;;
50128;SDS011;36026;45.478;9.224;2022-07-29T19:07:09;9.18;;;7.88;;
50128;SDS011;36026;45.478;9.224;2022-07-29T19:10:10;11.00;;;8.18;;